sensor_id;sensor_type;location;lat;lon;timestamp;temperature;humidity
36424;DHT22;22458;45.328;9.514;2023-02-28T00:01:07;9.80;71.70
36424;DHT22;22458;45.328;9.514;2023-02-28T00:03:32;9.70;71.80
36424;DHT22;22458;45.328;9.514;2023-02-28T00:06:05;9.70;71.80
36424;DHT22;22458;45.328;9.514;2023-02-28T00:08:31;9.70;71.80
36424;DHT22;22458;45.328;9.514;2023-02-28T00:11:11;9.70;71.80
36424;DHT22;22458;45.328;9.514;2023-02-28T00:13:42;9.60;71.90
36424;DHT22;22458;45.328;9.514;2023-02-28T00:16:13;9.60;71.80
36424;DHT22;22458;45.328;9.514;2023-02-28T00:18:39;9.60;71.70
36424;DHT22;22458;45.328;9.514;2023-02-28T00:21:06;9.60;71.60
36424;DHT22;22458;45.328;9.514;2023-02-28T00:23:32;9.60;71.30
36424;DHT22;22458;45.328;9.514;2023-02-28T00:25:57;9.60;71.20
36424;DHT22;22458;45.328;9.514;2023-02-28T00:28:24;9.60;71.00
36424;DHT22;22458;45.328;9.514;2023-02-28T00:30:50;9.60;71.00
36424;DHT22;22458;45.328;9.514;2023-02-28T00:33:16;9.70;70.90
36424;DHT22;22458;45.328;9.514;2023-02-28T00:35:42;9.70;70.80
36424;DHT22;22458;45.328;9.514;2023-02-28T00:38:09;9.70;70.80
36424;DHT22;22458;45.328;9.514;2023-02-28T00:40:35;9.60;70.80
36424;DHT22;22458;45.328;9.514;2023-02-28T00:43:00;9.70;70.80
36424;DHT22;22458;45.328;9.514;2023-02-28T00:45:26;9.70;70.80
36424;DHT22;22458;45.328;9.514;2023-02-28T00:47:52;9.70;70.90
36424;DHT22;22458;45.328;9.514;2023-02-28T00:50:19;9.70;71.00
36424;DHT22;22458;45.328;9.514;2023-02-28T00:52:45;9.70;71.10
36424;DHT22;22458;45.328;9.514;2023-02-28T00:55:14;9.70;71.30
36424;DHT22;22458;45.328;9.514;2023-02-28T00:57:39;9.70;71.30
36424;DHT22;22458;45.328;9.514;2023-02-28T01:00:06;9.60;71.30
36424;DHT22;22458;45.328;9.514;2023-02-28T01:02:32;9.60;71.40
36424;DHT22;22458;45.328;9.514;2023-02-28T01:04:58;9.70;71.30
36424;DHT22;22458;45.328;9.514;2023-02-28T01:07:24;9.70;71.20
36424;DHT22;22458;45.328;9.514;2023-02-28T01:09:50;9.60;71.30
36424;DHT22;22458;45.328;9.514;2023-02-28T01:12:15;9.60;71.40
36424;DHT22;22458;45.328;9.514;2023-02-28T01:14:42;9.60;71.50
36424;DHT22;22458;45.328;9.514;2023-02-28T01:17:08;9.60;71.60
36424;DHT22;22458;45.328;9.514;2023-02-28T01:19:34;9.60;71.70
36424;DHT22;22458;45.328;9.514;2023-02-28T01:22:03;9.60;71.60
36424;DHT22;22458;45.328;9.514;2023-02-28T01:24:29;9.50;71.60
36424;DHT22;22458;45.328;9.514;2023-02-28T01:26:55;9.50;71.70
36424;DHT22;22458;45.328;9.514;2023-02-28T01:29:21;9.30;71.90
36424;DHT22;22458;45.328;9.514;2023-02-28T01:31:46;9.30;72.00
36424;DHT22;22458;45.328;9.514;2023-02-28T01:34:12;9.20;71.80
36424;DHT22;22458;45.328;9.514;2023-02-28T01:36:38;9.10;71.60
36424;DHT22;22458;45.328;9.514;2023-02-28T01:39:04;9.00;71.90
36424;DHT22;22458;45.328;9.514;2023-02-28T01:41:31;8.90;71.00
36424;DHT22;22458;45.328;9.514;2023-02-28T01:44:54;8.90;70.80
36424;DHT22;22458;45.328;9.514;2023-02-28T01:46:55;8.80;70.60
36424;DHT22;22458;45.328;9.514;2023-02-28T01:49:20;8.70;70.60
36424;DHT22;22458;45.328;9.514;2023-02-28T01:51:51;8.70;70.50
36424;DHT22;22458;45.328;9.514;2023-02-28T01:54:27;8.70;70.50
36424;DHT22;22458;45.328;9.514;2023-02-28T01:57:19;8.80;70.10
36424;DHT22;22458;45.328;9.514;2023-02-28T01:59:51;8.80;70.00
36424;DHT22;22458;45.328;9.514;2023-02-28T02:02:20;9.00;69.90
36424;DHT22;22458;45.328;9.514;2023-02-28T02:05:07;9.00;69.80
36424;DHT22;22458;45.328;9.514;2023-02-28T02:07:36;9.10;69.60
36424;DHT22;22458;45.328;9.514;2023-02-28T02:10:06;9.20;69.80
36424;DHT22;22458;45.328;9.514;2023-02-28T02:15:44;9.20;69.90
36424;DHT22;22458;45.328;9.514;2023-02-28T02:24:16;9.20;70.20
36424;DHT22;22458;45.328;9.514;2023-02-28T02:32:47;9.30;70.30
36424;DHT22;22458;45.328;9.514;2023-02-28T02:35:26;9.20;70.40
36424;DHT22;22458;45.328;9.514;2023-02-28T02:43:55;9.20;70.40
36424;DHT22;22458;45.328;9.514;2023-02-28T02:46:41;9.20;70.50
36424;DHT22;22458;45.328;9.514;2023-02-28T02:49:33;9.20;70.40
36424;DHT22;22458;45.328;9.514;2023-02-28T02:52:03;9.20;70.20
36424;DHT22;22458;45.328;9.514;2023-02-28T02:54:38;9.10;70.20
36424;DHT22;22458;45.328;9.514;2023-02-28T02:57:10;9.10;70.10
36424;DHT22;22458;45.328;9.514;2023-02-28T02:59:39;9.10;70.10
36424;DHT22;22458;45.328;9.514;2023-02-28T03:02:08;9.10;70.60
36424;DHT22;22458;45.328;9.514;2023-02-28T03:04:42;9.10;70.00
36424;DHT22;22458;45.328;9.514;2023-02-28T03:07:08;9.10;69.90
36424;DHT22;22458;45.328;9.514;2023-02-28T03:09:34;9.10;69.80
36424;DHT22;22458;45.328;9.514;2023-02-28T03:12:09;9.10;69.70
36424;DHT22;22458;45.328;9.514;2023-02-28T03:14:42;9.00;69.50
36424;DHT22;22458;45.328;9.514;2023-02-28T03:17:36;9.00;69.60
36424;DHT22;22458;45.328;9.514;2023-02-28T03:26:23;8.90;69.50
36424;DHT22;22458;45.328;9.514;2023-02-28T03:28:43;8.90;69.40
36424;DHT22;22458;45.328;9.514;2023-02-28T03:31:29;8.90;69.30
36424;DHT22;22458;45.328;9.514;2023-02-28T03:36:41;8.90;69.10
36424;DHT22;22458;45.328;9.514;2023-02-28T03:39:37;8.90;69.10
36424;DHT22;22458;45.328;9.514;2023-02-28T03:42:11;9.00;69.10
36424;DHT22;22458;45.328;9.514;2023-02-28T03:47:21;9.00;69.00
36424;DHT22;22458;45.328;9.514;2023-02-28T03:50:11;9.00;68.90
36424;DHT22;22458;45.328;9.514;2023-02-28T03:52:50;9.00;68.80
36424;DHT22;22458;45.328;9.514;2023-02-28T03:55:17;9.00;68.90
36424;DHT22;22458;45.328;9.514;2023-02-28T03:58:07;9.00;68.90
36424;DHT22;22458;45.328;9.514;2023-02-28T04:00:49;9.00;68.80
36424;DHT22;22458;45.328;9.514;2023-02-28T04:03:16;9.00;68.90
36424;DHT22;22458;45.328;9.514;2023-02-28T04:05:52;9.00;69.00
36424;DHT22;22458;45.328;9.514;2023-02-28T04:08:18;9.00;69.10
36424;DHT22;22458;45.328;9.514;2023-02-28T04:10:48;9.10;69.10
36424;DHT22;22458;45.328;9.514;2023-02-28T04:13:16;9.10;69.00
36424;DHT22;22458;45.328;9.514;2023-02-28T04:15:41;9.10;69.20
36424;DHT22;22458;45.328;9.514;2023-02-28T04:18:08;9.00;69.30
36424;DHT22;22458;45.328;9.514;2023-02-28T04:20:33;9.00;69.30
36424;DHT22;22458;45.328;9.514;2023-02-28T04:22:59;9.00;69.30
36424;DHT22;22458;45.328;9.514;2023-02-28T04:25:25;8.90;69.40
36424;DHT22;22458;45.328;9.514;2023-02-28T04:27:50;9.00;69.50
36424;DHT22;22458;45.328;9.514;2023-02-28T04:30:16;8.90;69.50
36424;DHT22;22458;45.328;9.514;2023-02-28T04:32:42;8.90;69.60
36424;DHT22;22458;45.328;9.514;2023-02-28T04:35:08;8.90;69.70
36424;DHT22;22458;45.328;9.514;2023-02-28T04:37:33;8.80;69.90
36424;DHT22;22458;45.328;9.514;2023-02-28T04:40:03;8.80;70.00
36424;DHT22;22458;45.328;9.514;2023-02-28T04:42:29;8.80;70.20
36424;DHT22;22458;45.328;9.514;2023-02-28T04:45:02;8.80;70.30
36424;DHT22;22458;45.328;9.514;2023-02-28T04:47:28;8.80;70.20
36424;DHT22;22458;45.328;9.514;2023-02-28T04:49:54;8.90;70.10
36424;DHT22;22458;45.328;9.514;2023-02-28T04:52:19;8.80;70.20
36424;DHT22;22458;45.328;9.514;2023-02-28T04:54:45;8.90;70.30
36424;DHT22;22458;45.328;9.514;2023-02-28T04:57:11;8.90;70.30
36424;DHT22;22458;45.328;9.514;2023-02-28T04:59:36;8.90;70.40
36424;DHT22;22458;45.328;9.514;2023-02-28T05:02:03;8.90;70.80
36424;DHT22;22458;45.328;9.514;2023-02-28T05:04:35;8.90;70.90
36424;DHT22;22458;45.328;9.514;2023-02-28T05:07:02;8.90;71.20
36424;DHT22;22458;45.328;9.514;2023-02-28T05:09:29;8.80;71.50
36424;DHT22;22458;45.328;9.514;2023-02-28T05:11:55;8.90;71.80
36424;DHT22;22458;45.328;9.514;2023-02-28T05:14:21;8.90;72.00
36424;DHT22;22458;45.328;9.514;2023-02-28T05:16:47;8.90;72.30
36424;DHT22;22458;45.328;9.514;2023-02-28T05:19:13;8.80;72.50
36424;DHT22;22458;45.328;9.514;2023-02-28T05:21:41;8.70;72.80
36424;DHT22;22458;45.328;9.514;2023-02-28T05:24:11;8.70;73.10
36424;DHT22;22458;45.328;9.514;2023-02-28T05:26:42;8.80;73.40
36424;DHT22;22458;45.328;9.514;2023-02-28T05:29:09;8.70;73.40
36424;DHT22;22458;45.328;9.514;2023-02-28T05:31:35;8.80;73.50
36424;DHT22;22458;45.328;9.514;2023-02-28T05:34:01;8.80;73.70
36424;DHT22;22458;45.328;9.514;2023-02-28T05:36:27;8.80;73.90
36424;DHT22;22458;45.328;9.514;2023-02-28T05:38:53;8.70;74.10
36424;DHT22;22458;45.328;9.514;2023-02-28T05:41:20;8.70;74.30
36424;DHT22;22458;45.328;9.514;2023-02-28T05:43:46;8.70;74.40
36424;DHT22;22458;45.328;9.514;2023-02-28T05:46:12;8.60;74.60
36424;DHT22;22458;45.328;9.514;2023-02-28T05:48:40;8.60;74.80
36424;DHT22;22458;45.328;9.514;2023-02-28T05:51:07;8.60;75.00
36424;DHT22;22458;45.328;9.514;2023-02-28T05:53:33;8.60;75.00
36424;DHT22;22458;45.328;9.514;2023-02-28T05:56:00;8.50;75.00
36424;DHT22;22458;45.328;9.514;2023-02-28T05:58:26;8.50;75.20
36424;DHT22;22458;45.328;9.514;2023-02-28T06:00:56;8.40;75.40
36424;DHT22;22458;45.328;9.514;2023-02-28T06:03:22;8.40;75.50
36424;DHT22;22458;45.328;9.514;2023-02-28T06:05:48;8.40;75.60
36424;DHT22;22458;45.328;9.514;2023-02-28T06:08:13;8.30;75.70
36424;DHT22;22458;45.328;9.514;2023-02-28T06:10:39;8.30;75.80
36424;DHT22;22458;45.328;9.514;2023-02-28T06:13:05;8.30;76.00
36424;DHT22;22458;45.328;9.514;2023-02-28T06:15:31;8.20;76.10
36424;DHT22;22458;45.328;9.514;2023-02-28T06:17:57;8.20;76.20
36424;DHT22;22458;45.328;9.514;2023-02-28T06:20:25;8.20;76.30
36424;DHT22;22458;45.328;9.514;2023-02-28T06:22:55;8.10;76.40
36424;DHT22;22458;45.328;9.514;2023-02-28T06:25:21;8.10;76.60
36424;DHT22;22458;45.328;9.514;2023-02-28T06:27:47;8.00;76.90
36424;DHT22;22458;45.328;9.514;2023-02-28T06:30:14;8.00;77.00
36424;DHT22;22458;45.328;9.514;2023-02-28T06:32:39;8.10;76.90
36424;DHT22;22458;45.328;9.514;2023-02-28T06:35:05;8.00;76.90
36424;DHT22;22458;45.328;9.514;2023-02-28T06:37:32;8.00;76.90
36424;DHT22;22458;45.328;9.514;2023-02-28T06:39:58;7.90;77.20
36424;DHT22;22458;45.328;9.514;2023-02-28T06:42:24;7.90;77.40
36424;DHT22;22458;45.328;9.514;2023-02-28T06:44:57;7.90;77.40
36424;DHT22;22458;45.328;9.514;2023-02-28T06:47:23;8.00;77.40
36424;DHT22;22458;45.328;9.514;2023-02-28T06:49:49;8.00;77.20
36424;DHT22;22458;45.328;9.514;2023-02-28T06:52:16;8.10;77.20
36424;DHT22;22458;45.328;9.514;2023-02-28T06:54:41;8.10;77.30
36424;DHT22;22458;45.328;9.514;2023-02-28T06:57:07;8.20;77.20
36424;DHT22;22458;45.328;9.514;2023-02-28T06:59:33;8.20;77.10
36424;DHT22;22458;45.328;9.514;2023-02-28T07:02:00;8.30;77.10
36424;DHT22;22458;45.328;9.514;2023-02-28T07:04:28;8.30;76.90
36424;DHT22;22458;45.328;9.514;2023-02-28T07:06:55;8.40;76.90
36424;DHT22;22458;45.328;9.514;2023-02-28T07:09:22;8.40;76.90
36424;DHT22;22458;45.328;9.514;2023-02-28T07:11:48;8.40;76.90
36424;DHT22;22458;45.328;9.514;2023-02-28T07:14:14;8.50;76.90
36424;DHT22;22458;45.328;9.514;2023-02-28T07:16:40;8.50;76.80
36424;DHT22;22458;45.328;9.514;2023-02-28T07:19:05;8.50;76.90
36424;DHT22;22458;45.328;9.514;2023-02-28T07:21:31;8.50;77.00
36424;DHT22;22458;45.328;9.514;2023-02-28T07:23:57;8.50;77.00
36424;DHT22;22458;45.328;9.514;2023-02-28T07:26:23;8.50;77.10
36424;DHT22;22458;45.328;9.514;2023-02-28T07:28:49;8.60;77.10
36424;DHT22;22458;45.328;9.514;2023-02-28T07:31:15;8.60;77.30
36424;DHT22;22458;45.328;9.514;2023-02-28T07:33:42;8.60;77.30
36424;DHT22;22458;45.328;9.514;2023-02-28T07:36:11;8.60;77.40
36424;DHT22;22458;45.328;9.514;2023-02-28T07:38:45;8.70;77.50
36424;DHT22;22458;45.328;9.514;2023-02-28T07:41:15;8.70;77.60
36424;DHT22;22458;45.328;9.514;2023-02-28T07:43:41;8.70;77.70
36424;DHT22;22458;45.328;9.514;2023-02-28T07:46:09;8.80;77.70
36424;DHT22;22458;45.328;9.514;2023-02-28T07:48:35;8.90;77.50
36424;DHT22;22458;45.328;9.514;2023-02-28T07:51:02;9.00;77.50
36424;DHT22;22458;45.328;9.514;2023-02-28T07:53:28;8.90;77.60
36424;DHT22;22458;45.328;9.514;2023-02-28T07:55:55;9.00;77.60
36424;DHT22;22458;45.328;9.514;2023-02-28T07:58:21;9.10;77.60
36424;DHT22;22458;45.328;9.514;2023-02-28T08:00:47;8.90;77.80
36424;DHT22;22458;45.328;9.514;2023-02-28T08:03:13;8.90;78.10
36424;DHT22;22458;45.328;9.514;2023-02-28T08:05:42;9.00;78.20
36424;DHT22;22458;45.328;9.514;2023-02-28T08:08:08;9.10;78.00
36424;DHT22;22458;45.328;9.514;2023-02-28T08:10:34;9.20;77.70
36424;DHT22;22458;45.328;9.514;2023-02-28T08:13:00;9.20;77.60
36424;DHT22;22458;45.328;9.514;2023-02-28T08:15:26;9.30;77.70
36424;DHT22;22458;45.328;9.514;2023-02-28T08:17:52;9.40;77.60
36424;DHT22;22458;45.328;9.514;2023-02-28T08:20:18;9.50;77.50
36424;DHT22;22458;45.328;9.514;2023-02-28T08:22:44;9.50;77.40
36424;DHT22;22458;45.328;9.514;2023-02-28T08:25:10;9.60;77.60
36424;DHT22;22458;45.328;9.514;2023-02-28T08:27:36;9.70;77.40
36424;DHT22;22458;45.328;9.514;2023-02-28T08:30:03;9.80;77.30
36424;DHT22;22458;45.328;9.514;2023-02-28T08:32:29;9.80;77.20
36424;DHT22;22458;45.328;9.514;2023-02-28T08:34:55;9.80;77.20
36424;DHT22;22458;45.328;9.514;2023-02-28T08:39:47;9.80;77.00
36424;DHT22;22458;45.328;9.514;2023-02-28T08:42:13;9.70;77.40
36424;DHT22;22458;45.328;9.514;2023-02-28T08:44:39;9.70;77.50
36424;DHT22;22458;45.328;9.514;2023-02-28T08:47:06;9.90;77.40
36424;DHT22;22458;45.328;9.514;2023-02-28T08:49:32;10.00;77.10
36424;DHT22;22458;45.328;9.514;2023-02-28T08:51:57;10.10;76.70
36424;DHT22;22458;45.328;9.514;2023-02-28T08:54:24;10.10;76.40
36424;DHT22;22458;45.328;9.514;2023-02-28T08:56:50;10.10;76.40
36424;DHT22;22458;45.328;9.514;2023-02-28T08:59:16;10.20;76.20
36424;DHT22;22458;45.328;9.514;2023-02-28T09:01:42;10.30;75.80
36424;DHT22;22458;45.328;9.514;2023-02-28T09:04:09;10.40;75.30
36424;DHT22;22458;45.328;9.514;2023-02-28T09:06:36;10.50;74.70
36424;DHT22;22458;45.328;9.514;2023-02-28T09:09:02;10.50;74.20
36424;DHT22;22458;45.328;9.514;2023-02-28T09:11:29;10.70;73.90
36424;DHT22;22458;45.328;9.514;2023-02-28T09:13:55;10.70;73.70
36424;DHT22;22458;45.328;9.514;2023-02-28T09:16:21;10.80;73.50
36424;DHT22;22458;45.328;9.514;2023-02-28T09:18:47;10.80;73.20
36424;DHT22;22458;45.328;9.514;2023-02-28T09:21:16;10.90;73.00
36424;DHT22;22458;45.328;9.514;2023-02-28T09:23:43;10.90;72.90
36424;DHT22;22458;45.328;9.514;2023-02-28T09:26:14;11.00;72.70
36424;DHT22;22458;45.328;9.514;2023-02-28T09:28:40;11.00;72.50
36424;DHT22;22458;45.328;9.514;2023-02-28T09:31:06;11.10;72.50
36424;DHT22;22458;45.328;9.514;2023-02-28T09:33:31;11.20;72.30
36424;DHT22;22458;45.328;9.514;2023-02-28T09:35:59;11.30;72.00
36424;DHT22;22458;45.328;9.514;2023-02-28T09:38:26;11.40;71.50
36424;DHT22;22458;45.328;9.514;2023-02-28T09:40:56;11.40;71.10
36424;DHT22;22458;45.328;9.514;2023-02-28T09:43:23;11.50;70.80
36424;DHT22;22458;45.328;9.514;2023-02-28T09:46:37;11.50;70.90
36424;DHT22;22458;45.328;9.514;2023-02-28T09:48:55;11.50;70.80
36424;DHT22;22458;45.328;9.514;2023-02-28T09:51:40;11.40;70.90
36424;DHT22;22458;45.328;9.514;2023-02-28T09:54:20;11.50;70.90
36424;DHT22;22458;45.328;9.514;2023-02-28T09:56:51;11.60;70.60
36424;DHT22;22458;45.328;9.514;2023-02-28T09:59:29;11.70;70.50
36424;DHT22;22458;45.328;9.514;2023-02-28T10:02:21;11.70;70.20
36424;DHT22;22458;45.328;9.514;2023-02-28T10:04:54;11.90;69.90
36424;DHT22;22458;45.328;9.514;2023-02-28T10:07:41;12.00;70.00
36424;DHT22;22458;45.328;9.514;2023-02-28T10:10:38;12.20;69.80
36424;DHT22;22458;45.328;9.514;2023-02-28T10:13:31;12.40;69.30
36424;DHT22;22458;45.328;9.514;2023-02-28T10:18:47;12.60;67.70
36424;DHT22;22458;45.328;9.514;2023-02-28T10:29:45;13.30;66.10
36424;DHT22;22458;45.328;9.514;2023-02-28T10:35:15;13.50;64.60
36424;DHT22;22458;45.328;9.514;2023-02-28T10:37:44;13.50;64.00
36424;DHT22;22458;45.328;9.514;2023-02-28T10:42:42;13.70;64.80
36424;DHT22;22458;45.328;9.514;2023-02-28T10:45:19;13.90;64.50
36424;DHT22;22458;45.328;9.514;2023-02-28T10:48:27;13.80;63.60
36424;DHT22;22458;45.328;9.514;2023-02-28T10:50:53;13.80;63.10
36424;DHT22;22458;45.328;9.514;2023-02-28T10:58:28;13.70;62.80
36424;DHT22;22458;45.328;9.514;2023-02-28T11:00:54;13.70;62.50
36424;DHT22;22458;45.328;9.514;2023-02-28T11:03:34;13.60;62.30
36424;DHT22;22458;45.328;9.514;2023-02-28T11:06:07;13.60;61.80
36424;DHT22;22458;45.328;9.514;2023-02-28T11:08:34;13.60;61.90
36424;DHT22;22458;45.328;9.514;2023-02-28T11:11:04;13.60;62.20
36424;DHT22;22458;45.328;9.514;2023-02-28T11:13:36;13.60;62.20
36424;DHT22;22458;45.328;9.514;2023-02-28T11:16:09;13.60;62.30
36424;DHT22;22458;45.328;9.514;2023-02-28T11:18:51;13.50;62.10
36424;DHT22;22458;45.328;9.514;2023-02-28T11:21:31;13.30;61.90
36424;DHT22;22458;45.328;9.514;2023-02-28T11:24:33;13.00;62.00
36424;DHT22;22458;45.328;9.514;2023-02-28T11:26:59;12.90;62.10
36424;DHT22;22458;45.328;9.514;2023-02-28T11:29:28;12.80;62.50
36424;DHT22;22458;45.328;9.514;2023-02-28T11:34:27;12.80;62.30
36424;DHT22;22458;45.328;9.514;2023-02-28T11:36:55;12.80;62.00
36424;DHT22;22458;45.328;9.514;2023-02-28T11:39:23;12.80;61.80
36424;DHT22;22458;45.328;9.514;2023-02-28T11:42:18;12.50;61.40
36424;DHT22;22458;45.328;9.514;2023-02-28T11:44:52;12.40;61.70
36424;DHT22;22458;45.328;9.514;2023-02-28T11:53:14;12.00;62.10
36424;DHT22;22458;45.328;9.514;2023-02-28T11:55:52;11.90;62.30
36424;DHT22;22458;45.328;9.514;2023-02-28T12:04:03;11.80;62.90
36424;DHT22;22458;45.328;9.514;2023-02-28T12:06:50;11.80;63.00
36424;DHT22;22458;45.328;9.514;2023-02-28T12:10:14;11.70;62.80
36424;DHT22;22458;45.328;9.514;2023-02-28T12:15:32;11.90;63.00
36424;DHT22;22458;45.328;9.514;2023-02-28T12:29:24;12.00;63.10
36424;DHT22;22458;45.328;9.514;2023-02-28T12:31:58;12.20;62.90
36424;DHT22;22458;45.328;9.514;2023-02-28T12:34:33;12.20;62.70
36424;DHT22;22458;45.328;9.514;2023-02-28T12:37:05;12.20;62.50
36424;DHT22;22458;45.328;9.514;2023-02-28T12:39:36;12.30;62.80
36424;DHT22;22458;45.328;9.514;2023-02-28T12:42:25;12.50;62.60
36424;DHT22;22458;45.328;9.514;2023-02-28T12:44:58;12.50;61.80
36424;DHT22;22458;45.328;9.514;2023-02-28T12:47:25;12.60;61.90
36424;DHT22;22458;45.328;9.514;2023-02-28T12:50:06;12.70;61.80
36424;DHT22;22458;45.328;9.514;2023-02-28T12:58:54;12.50;61.30
36424;DHT22;22458;45.328;9.514;2023-02-28T13:09:55;12.50;60.90
36424;DHT22;22458;45.328;9.514;2023-02-28T13:12:24;12.50;61.00
36424;DHT22;22458;45.328;9.514;2023-02-28T13:15:07;12.60;61.00
36424;DHT22;22458;45.328;9.514;2023-02-28T13:17:39;12.70;60.90
36424;DHT22;22458;45.328;9.514;2023-02-28T13:20:25;12.80;60.60
36424;DHT22;22458;45.328;9.514;2023-02-28T13:22:54;12.90;60.30
36424;DHT22;22458;45.328;9.514;2023-02-28T13:28:13;13.00;60.10
36424;DHT22;22458;45.328;9.514;2023-02-28T13:36:27;13.30;59.50
36424;DHT22;22458;45.328;9.514;2023-02-28T13:39:03;13.30;59.40
36424;DHT22;22458;45.328;9.514;2023-02-28T14:00:39;13.90;58.40
36424;DHT22;22458;45.328;9.514;2023-02-28T14:03:24;14.00;58.10
36424;DHT22;22458;45.328;9.514;2023-02-28T14:06:30;14.10;58.00
36424;DHT22;22458;45.328;9.514;2023-02-28T14:09:16;14.00;57.50
36424;DHT22;22458;45.328;9.514;2023-02-28T14:11:45;14.00;57.70
36424;DHT22;22458;45.328;9.514;2023-02-28T14:17:03;13.90;57.50
36424;DHT22;22458;45.328;9.514;2023-02-28T14:19:31;13.90;57.90
36424;DHT22;22458;45.328;9.514;2023-02-28T14:25:13;13.70;57.50
36424;DHT22;22458;45.328;9.514;2023-02-28T14:30:53;13.30;58.00
36424;DHT22;22458;45.328;9.514;2023-02-28T14:33:47;13.30;57.80
36424;DHT22;22458;45.328;9.514;2023-02-28T14:36:23;13.20;57.80
36424;DHT22;22458;45.328;9.514;2023-02-28T14:38:52;13.20;57.80
36424;DHT22;22458;45.328;9.514;2023-02-28T14:41:21;13.10;57.80
36424;DHT22;22458;45.328;9.514;2023-02-28T14:43:57;13.20;57.90
36424;DHT22;22458;45.328;9.514;2023-02-28T14:46:44;13.40;57.70
36424;DHT22;22458;45.328;9.514;2023-02-28T14:49:44;13.40;57.50
36424;DHT22;22458;45.328;9.514;2023-02-28T14:52:21;13.50;57.60
36424;DHT22;22458;45.328;9.514;2023-02-28T14:55:05;13.60;57.60
36424;DHT22;22458;45.328;9.514;2023-02-28T14:57:38;13.60;57.40
36424;DHT22;22458;45.328;9.514;2023-02-28T15:02:36;13.80;57.20
36424;DHT22;22458;45.328;9.514;2023-02-28T15:07:38;13.80;57.00
36424;DHT22;22458;45.328;9.514;2023-02-28T15:10:13;13.70;57.20
36424;DHT22;22458;45.328;9.514;2023-02-28T15:12:40;13.70;57.20
36424;DHT22;22458;45.328;9.514;2023-02-28T15:15:16;13.80;57.20
36424;DHT22;22458;45.328;9.514;2023-02-28T15:17:45;13.90;57.20
36424;DHT22;22458;45.328;9.514;2023-02-28T15:20:13;14.10;57.10
36424;DHT22;22458;45.328;9.514;2023-02-28T15:22:40;14.10;56.60
36424;DHT22;22458;45.328;9.514;2023-02-28T15:25:07;14.00;56.40
36424;DHT22;22458;45.328;9.514;2023-02-28T15:27:44;14.20;56.30
36424;DHT22;22458;45.328;9.514;2023-02-28T15:30:20;14.70;55.70
36424;DHT22;22458;45.328;9.514;2023-02-28T15:35:34;15.60;54.40
36424;DHT22;22458;45.328;9.514;2023-02-28T15:38:03;15.60;54.40
36424;DHT22;22458;45.328;9.514;2023-02-28T15:40:40;15.60;54.50
36424;DHT22;22458;45.328;9.514;2023-02-28T15:43:17;15.60;54.70
36424;DHT22;22458;45.328;9.514;2023-02-28T15:45:49;15.60;54.40
36424;DHT22;22458;45.328;9.514;2023-02-28T15:48:25;15.80;54.30
36424;DHT22;22458;45.328;9.514;2023-02-28T15:53:45;16.10;53.80
36424;DHT22;22458;45.328;9.514;2023-02-28T15:56:27;16.00;53.60
36424;DHT22;22458;45.328;9.514;2023-02-28T15:58:58;15.70;53.80
36424;DHT22;22458;45.328;9.514;2023-02-28T16:01:32;15.40;54.20
36424;DHT22;22458;45.328;9.514;2023-02-28T16:04:19;15.10;54.50
36424;DHT22;22458;45.328;9.514;2023-02-28T16:07:03;14.90;54.80
36424;DHT22;22458;45.328;9.514;2023-02-28T16:09:29;14.80;55.20
36424;DHT22;22458;45.328;9.514;2023-02-28T16:12:00;14.60;55.50
36424;DHT22;22458;45.328;9.514;2023-02-28T16:14:31;14.50;55.70
36424;DHT22;22458;45.328;9.514;2023-02-28T16:17:03;14.40;56.00
36424;DHT22;22458;45.328;9.514;2023-02-28T16:19:29;14.30;56.40
36424;DHT22;22458;45.328;9.514;2023-02-28T16:21:55;14.10;56.60
36424;DHT22;22458;45.328;9.514;2023-02-28T16:24:20;14.00;56.90
36424;DHT22;22458;45.328;9.514;2023-02-28T16:26:48;13.90;57.30
36424;DHT22;22458;45.328;9.514;2023-02-28T16:29:20;13.80;57.40
36424;DHT22;22458;45.328;9.514;2023-02-28T16:31:49;13.60;57.60
36424;DHT22;22458;45.328;9.514;2023-02-28T16:34:15;13.50;57.80
36424;DHT22;22458;45.328;9.514;2023-02-28T16:36:41;13.50;58.00
36424;DHT22;22458;45.328;9.514;2023-02-28T16:39:06;13.40;58.30
36424;DHT22;22458;45.328;9.514;2023-02-28T16:41:34;13.30;58.60
36424;DHT22;22458;45.328;9.514;2023-02-28T16:44:00;13.20;58.80
36424;DHT22;22458;45.328;9.514;2023-02-28T16:46:34;13.10;59.20
36424;DHT22;22458;45.328;9.514;2023-02-28T16:49:00;13.00;59.20
36424;DHT22;22458;45.328;9.514;2023-02-28T16:51:26;12.90;59.30
36424;DHT22;22458;45.328;9.514;2023-02-28T16:53:52;12.80;59.60
36424;DHT22;22458;45.328;9.514;2023-02-28T16:56:23;12.80;59.90
36424;DHT22;22458;45.328;9.514;2023-02-28T16:58:51;12.60;60.00
36424;DHT22;22458;45.328;9.514;2023-02-28T17:01:17;12.50;60.40
36424;DHT22;22458;45.328;9.514;2023-02-28T17:03:48;12.40;60.70
36424;DHT22;22458;45.328;9.514;2023-02-28T17:06:24;12.20;61.10
36424;DHT22;22458;45.328;9.514;2023-02-28T17:08:51;12.20;61.20
36424;DHT22;22458;45.328;9.514;2023-02-28T17:11:17;12.10;61.40
36424;DHT22;22458;45.328;9.514;2023-02-28T17:13:43;12.00;61.60
36424;DHT22;22458;45.328;9.514;2023-02-28T17:16:35;12.00;61.80
36424;DHT22;22458;45.328;9.514;2023-02-28T17:19:04;11.90;61.90
36424;DHT22;22458;45.328;9.514;2023-02-28T17:21:31;11.80;62.10
36424;DHT22;22458;45.328;9.514;2023-02-28T17:23:57;11.70;62.20
36424;DHT22;22458;45.328;9.514;2023-02-28T17:26:23;11.60;62.50
36424;DHT22;22458;45.328;9.514;2023-02-28T17:28:54;11.50;62.80
36424;DHT22;22458;45.328;9.514;2023-02-28T17:31:22;11.40;63.10
36424;DHT22;22458;45.328;9.514;2023-02-28T17:33:48;11.30;64.00
36424;DHT22;22458;45.328;9.514;2023-02-28T17:36:15;11.30;63.60
36424;DHT22;22458;45.328;9.514;2023-02-28T17:38:42;11.10;64.10
36424;DHT22;22458;45.328;9.514;2023-02-28T17:41:11;11.00;64.60
36424;DHT22;22458;45.328;9.514;2023-02-28T17:43:37;11.00;65.00
36424;DHT22;22458;45.328;9.514;2023-02-28T17:46:03;10.90;64.80
36424;DHT22;22458;45.328;9.514;2023-02-28T17:48:31;10.80;65.20
36424;DHT22;22458;45.328;9.514;2023-02-28T17:50:57;10.80;65.20
36424;DHT22;22458;45.328;9.514;2023-02-28T17:53:22;10.80;65.10
36424;DHT22;22458;45.328;9.514;2023-02-28T17:55:49;10.80;65.30
36424;DHT22;22458;45.328;9.514;2023-02-28T17:58:15;10.60;65.30
36424;DHT22;22458;45.328;9.514;2023-02-28T18:00:41;10.60;65.80
36424;DHT22;22458;45.328;9.514;2023-02-28T18:03:07;10.40;66.10
36424;DHT22;22458;45.328;9.514;2023-02-28T18:05:33;10.40;66.40
36424;DHT22;22458;45.328;9.514;2023-02-28T18:08:03;10.30;66.50
36424;DHT22;22458;45.328;9.514;2023-02-28T18:10:29;10.30;66.80
36424;DHT22;22458;45.328;9.514;2023-02-28T18:12:59;10.20;67.00
36424;DHT22;22458;45.328;9.514;2023-02-28T18:15:24;10.10;67.10
36424;DHT22;22458;45.328;9.514;2023-02-28T18:17:50;10.10;67.40
36424;DHT22;22458;45.328;9.514;2023-02-28T18:20:17;10.10;67.40
36424;DHT22;22458;45.328;9.514;2023-02-28T18:22:43;10.00;67.40
36424;DHT22;22458;45.328;9.514;2023-02-28T18:25:10;10.10;67.40
36424;DHT22;22458;45.328;9.514;2023-02-28T18:27:39;10.20;67.30